Maersk Visby — 9V8827 — position and weather

sailwx.info

Track history (hours):
 
Tides and Currents Weather Stations Pressure Air Temp Water Temp Dewpoint Dewpoint Depression Visibility Wind Speed Wind Dir Waves Ship Positions

Maersk Visby

Last reported at 2015-Jan-25 06:11 UTC. Time now 2015-Jan-27 21:07 UTC.
Position S 34°34' E 018°39'.

Length 180 m; draft 8.5 m.

Type: Ship (hazmat cat D). MMSI: 564979000.

Date/timePositionNaut miles runAvg speedWind from/ knotsBaromVisibWave heightAir tempDewpointWater temp
2015-Jan-25 06:11S 34°34' E 018°39'  
2015-Jan-22 10:33S 30°14' E 030°55'22 5.1
2015-Jan-22 06:13S 29°53' E 031°00'0 0.0
2015-Jan-22 00:07S 29°53' E 031°00'0 0.0
2015-Jan-21 23:31S 29°53' E 031°00'0 0.0
2015-Jan-21 22:49S 29°53' E 031°00'0 0.0
2015-Jan-21 22:43S 29°53' E 031°00'0 0.0
2015-Jan-21 22:31S 29°53' E 031°00'0 0.0
2015-Jan-21 21:31S 29°53' E 031°00'0 0.0
2015-Jan-21 20:31S 29°53' E 031°00'0 0.0
2015-Jan-21 19:31S 29°53' E 031°00'0 0.0
2015-Jan-21 18:25S 29°53' E 031°00'0 0.0
2015-Jan-21 17:31S 29°53' E 031°00'0 0.0
2015-Jan-21 16:31S 29°53' E 031°00'0 0.0
2015-Jan-21 15:31S 29°53' E 031°00'0 0.0
2015-Jan-21 14:31S 29°53' E 031°00'0 0.0
2015-Jan-21 13:31S 29°53' E 031°00'0 0.0
2015-Jan-21 12:25S 29°53' E 031°00'0 0.0
2015-Jan-21 11:25S 29°53' E 031°00'0 0.0
2015-Jan-21 10:31S 29°53' E 031°00'0 0.0
2015-Jan-21 09:31S 29°53' E 031°00'0 0.0
2015-Jan-21 08:07S 29°53' E 031°00'0 0.0
2015-Jan-21 07:31S 29°53' E 031°00'0 0.0
2015-Jan-21 06:31S 29°53' E 031°00'0 0.0
2015-Jan-21 05:25S 29°53' E 031°00'0 0.0
2015-Jan-21 04:31S 29°53' E 031°00'0 0.0
2015-Jan-21 03:31S 29°53' E 031°00'0 0.0
2015-Jan-21 02:31S 29°53' E 031°00'0 0.0
2015-Jan-21 01:25S 29°53' E 031°00'0 0.0
2015-Jan-21 00:31S 29°53' E 031°00'0 0.0
2015-Jan-20 23:31S 29°53' E 031°00'0 0.0
2015-Jan-20 22:31S 29°53' E 031°00'0 0.0
2015-Jan-20 21:31S 29°53' E 031°00'0 0.0
2015-Jan-20 20:31S 29°53' E 031°00'0 0.0
2015-Jan-20 19:31S 29°53' E 031°00'0 0.0
2015-Jan-20 18:07S 29°53' E 031°00'0 0.0
2015-Jan-20 17:31S 29°53' E 031°00'0 0.0
2015-Jan-20 16:19S 29°53' E 031°00'0 0.0
2015-Jan-20 15:25S 29°53' E 031°00'0 0.0
2015-Jan-20 14:25S 29°53' E 031°00'0 0.0
2015-Jan-20 13:31S 29°53' E 031°00'0 0.0
2015-Jan-20 12:31S 29°53' E 031°00'0 0.0
2015-Jan-20 11:13S 29°53' E 031°00'0 0.0
2015-Jan-20 10:31S 29°53' E 031°00'0 0.0
2015-Jan-20 09:31S 29°53' E 031°00'0 0.0
2015-Jan-20 08:13S 29°53' E 031°00'0 0.0
2015-Jan-20 07:31S 29°53' E 031°00'0 0.0
2015-Jan-20 06:31S 29°53' E 031°00'0 0.0
2015-Jan-20 05:31S 29°53' E 031°00'0 0.0
2015-Jan-20 04:25S 29°53' E 031°00'0 0.0
2015-Jan-20 02:19S 29°53' E 031°00'0 0.0
2015-Jan-20 01:14S 29°53' E 031°00'0 0.0
2015-Jan-20 00:31S 29°53' E 031°00'0 0.0
2015-Jan-19 23:31S 29°53' E 031°00'0 0.0
2015-Jan-19 22:19S 29°53' E 031°00'0 0.0
2015-Jan-19 21:31S 29°53' E 031°00'0 0.0
2015-Jan-19 20:31S 29°53' E 031°00'0 0.0
2015-Jan-19 19:07S 29°53' E 031°00'0 0.0
2015-Jan-19 18:25S 29°53' E 031°00'0 0.0
2015-Jan-19 17:31S 29°53' E 031°00'0 0.0
2015-Jan-19 16:25S 29°53' E 031°00'0 0.0
2015-Jan-19 15:31S 29°53' E 031°00'0 0.0
2015-Jan-19 14:31S 29°53' E 031°00'0 0.0
2015-Jan-19 13:25S 29°53' E 031°00'0 0.0
2015-Jan-19 12:25S 29°53' E 031°00'0 0.0
2015-Jan-19 09:07S 29°53' E 031°00'0 0.0
2015-Jan-19 08:31S 29°53' E 031°00'0 0.0
2015-Jan-19 07:31S 29°53' E 031°00'0 0.2
2015-Jan-19 06:33S 29°53' E 031°00'5 5.2
2015-Jan-19 05:33S 29°50' E 031°05'1 1.2
2015-Jan-19 04:33S 29°49' E 031°06'6 5.7
2015-Jan-19 03:33S 29°44' E 031°08'1 0.4
2015-Jan-19 02:14S 29°43' E 031°08'0 0.0
2015-Jan-19 01:20S 29°43' E 031°08'0 0.0
2015-Jan-19 00:26S 29°43' E 031°08'0 0.1
2015-Jan-18 23:32S 29°43' E 031°08'0 0.0
2015-Jan-18 22:08S 29°43' E 031°08'0 0.0
2015-Jan-18 21:32S 29°43' E 031°08'0 0.0
2015-Jan-18 20:26S 29°43' E 031°08'0 0.0
2015-Jan-18 19:32S 29°43' E 031°08'0 0.0
2015-Jan-18 18:32S 29°43' E 031°08'0 0.0
2015-Jan-18 14:32S 29°43' E 031°08'0 0.0
2015-Jan-18 13:20S 29°43' E 031°08'0 0.0
2015-Jan-18 12:32S 29°43' E 031°08'0 0.0
2015-Jan-18 11:32S 29°43' E 031°08'0 0.0
2015-Jan-18 10:08S 29°43' E 031°08'0 0.0
2015-Jan-18 09:26S 29°43' E 031°08'0 0.0
2015-Jan-18 08:32S 29°43' E 031°08'0 0.0
2015-Jan-18 07:14S 29°43' E 031°08'0 0.0
2015-Jan-18 05:20S 29°43' E 031°08'0 0.0
2015-Jan-18 04:20S 29°43' E 031°08'0 0.0
2015-Jan-18 03:32S 29°43' E 031°08'0 0.0
2015-Jan-18 02:26S 29°43' E 031°08'0 0.0
2015-Jan-18 01:14S 29°43' E 031°08'0 0.0
2015-Jan-18 00:32S 29°43' E 031°08'0 0.0
2015-Jan-17 23:20S 29°43' E 031°08'0 0.1
2015-Jan-17 22:32S 29°43' E 031°08'0 0.0
2015-Jan-17 21:26S 29°43' E 031°08'0 0.0
2015-Jan-17 20:32S 29°43' E 031°08'0 0.0
2015-Jan-17 19:14S 29°43' E 031°08'0 0.0
2015-Jan-17 18:32S 29°43' E 031°08'0 0.0
2015-Jan-17 17:32S 29°43' E 031°08'0 0.0
2015-Jan-17 16:32S 29°43' E 031°08'0 0.0
2015-Jan-17 15:26S 29°43' E 031°08'0 0.0
2015-Jan-17 14:26S 29°43' E 031°08'0 0.0
2015-Jan-17 12:32S 29°43' E 031°08'0 0.0
2015-Jan-17 11:08S 29°43' E 031°08'0 0.0
2015-Jan-17 10:26S 29°43' E 031°08'0 0.0
2015-Jan-17 09:32S 29°43' E 031°08'0 0.0
2015-Jan-17 08:26S 29°43' E 031°08'0 0.0
2015-Jan-17 06:26S 29°43' E 031°08'0 0.0
2015-Jan-17 05:26S 29°43' E 031°08'  
Track history (hours):
 
Tides and Currents Weather Stations Pressure Air Temp Water Temp Dewpoint Dewpoint Depression Visibility Wind Speed Wind Dir Waves Ship Positions

Maersk Visby

Last reported at 2015-Jan-25 06:11 UTC. Time now 2015-Jan-27 21:07 UTC.
Position S 34°34' E 018°39'.

Length 180 m; draft 8.5 m.

Type: Ship (hazmat cat D). MMSI: 564979000.

Date/timePositionNaut miles runAvg speedWind from/ knotsBaromVisibWave heightAir tempDewpointWater temp
2015-Jan-25 06:11S 34°34' E 018°39'  
2015-Jan-22 10:33S 30°14' E 030°55'22 5.1
2015-Jan-22 06:13S 29°53' E 031°00'0 0.0
2015-Jan-22 00:07S 29°53' E 031°00'0 0.0
2015-Jan-21 23:31S 29°53' E 031°00'0 0.0
2015-Jan-21 22:49S 29°53' E 031°00'0 0.0
2015-Jan-21 22:43S 29°53' E 031°00'0 0.0
2015-Jan-21 22:31S 29°53' E 031°00'0 0.0
2015-Jan-21 21:31S 29°53' E 031°00'0 0.0
2015-Jan-21 20:31S 29°53' E 031°00'0 0.0
2015-Jan-21 19:31S 29°53' E 031°00'0 0.0
2015-Jan-21 18:25S 29°53' E 031°00'0 0.0
2015-Jan-21 17:31S 29°53' E 031°00'0 0.0
2015-Jan-21 16:31S 29°53' E 031°00'0 0.0
2015-Jan-21 15:31S 29°53' E 031°00'0 0.0
2015-Jan-21 14:31S 29°53' E 031°00'0 0.0
2015-Jan-21 13:31S 29°53' E 031°00'0 0.0
2015-Jan-21 12:25S 29°53' E 031°00'0 0.0
2015-Jan-21 11:25S 29°53' E 031°00'0 0.0
2015-Jan-21 10:31S 29°53' E 031°00'0 0.0
2015-Jan-21 09:31S 29°53' E 031°00'0 0.0
2015-Jan-21 08:07S 29°53' E 031°00'0 0.0
2015-Jan-21 07:31S 29°53' E 031°00'0 0.0
2015-Jan-21 06:31S 29°53' E 031°00'0 0.0
2015-Jan-21 05:25S 29°53' E 031°00'0 0.0
2015-Jan-21 04:31S 29°53' E 031°00'0 0.0
2015-Jan-21 03:31S 29°53' E 031°00'0 0.0
2015-Jan-21 02:31S 29°53' E 031°00'0 0.0
2015-Jan-21 01:25S 29°53' E 031°00'0 0.0
2015-Jan-21 00:31S 29°53' E 031°00'0 0.0
2015-Jan-20 23:31S 29°53' E 031°00'0 0.0
2015-Jan-20 22:31S 29°53' E 031°00'0 0.0
2015-Jan-20 21:31S 29°53' E 031°00'0 0.0
2015-Jan-20 20:31S 29°53' E 031°00'0 0.0
2015-Jan-20 19:31S 29°53' E 031°00'0 0.0
2015-Jan-20 18:07S 29°53' E 031°00'0 0.0
2015-Jan-20 17:31S 29°53' E 031°00'0 0.0
2015-Jan-20 16:19S 29°53' E 031°00'0 0.0
2015-Jan-20 15:25S 29°53' E 031°00'0 0.0
2015-Jan-20 14:25S 29°53' E 031°00'0 0.0
2015-Jan-20 13:31S 29°53' E 031°00'0 0.0
2015-Jan-20 12:31S 29°53' E 031°00'0 0.0
2015-Jan-20 11:13S 29°53' E 031°00'0 0.0
2015-Jan-20 10:31S 29°53' E 031°00'0 0.0
2015-Jan-20 09:31S 29°53' E 031°00'0 0.0
2015-Jan-20 08:13S 29°53' E 031°00'0 0.0
2015-Jan-20 07:31S 29°53' E 031°00'0 0.0
2015-Jan-20 06:31S 29°53' E 031°00'0 0.0
2015-Jan-20 05:31S 29°53' E 031°00'0 0.0
2015-Jan-20 04:25S 29°53' E 031°00'0 0.0
2015-Jan-20 02:19S 29°53' E 031°00'0 0.0
2015-Jan-20 01:14S 29°53' E 031°00'0 0.0
2015-Jan-20 00:31S 29°53' E 031°00'0 0.0
2015-Jan-19 23:31S 29°53' E 031°00'0 0.0
2015-Jan-19 22:19S 29°53' E 031°00'0 0.0
2015-Jan-19 21:31S 29°53' E 031°00'0 0.0
2015-Jan-19 20:31S 29°53' E 031°00'0 0.0
2015-Jan-19 19:07S 29°53' E 031°00'0 0.0
2015-Jan-19 18:25S 29°53' E 031°00'0 0.0
2015-Jan-19 17:31S 29°53' E 031°00'0 0.0
2015-Jan-19 16:25S 29°53' E 031°00'0 0.0
2015-Jan-19 15:31S 29°53' E 031°00'0 0.0
2015-Jan-19 14:31S 29°53' E 031°00'0 0.0
2015-Jan-19 13:25S 29°53' E 031°00'0 0.0
2015-Jan-19 12:25S 29°53' E 031°00'0 0.0
2015-Jan-19 09:07S 29°53' E 031°00'0 0.0
2015-Jan-19 08:31S 29°53' E 031°00'0 0.0
2015-Jan-19 07:31S 29°53' E 031°00'0 0.2
2015-Jan-19 06:33S 29°53' E 031°00'5 5.2
2015-Jan-19 05:33S 29°50' E 031°05'1 1.2
2015-Jan-19 04:33S 29°49' E 031°06'6 5.7
2015-Jan-19 03:33S 29°44' E 031°08'1 0.4
2015-Jan-19 02:14S 29°43' E 031°08'0 0.0
2015-Jan-19 01:20S 29°43' E 031°08'0 0.0
2015-Jan-19 00:26S 29°43' E 031°08'0 0.1
2015-Jan-18 23:32S 29°43' E 031°08'0 0.0
2015-Jan-18 22:08S 29°43' E 031°08'0 0.0
2015-Jan-18 21:32S 29°43' E 031°08'0 0.0
2015-Jan-18 20:26S 29°43' E 031°08'0 0.0
2015-Jan-18 19:32S 29°43' E 031°08'0 0.0
2015-Jan-18 18:32S 29°43' E 031°08'0 0.0
2015-Jan-18 14:32S 29°43' E 031°08'0 0.0
2015-Jan-18 13:20S 29°43' E 031°08'0 0.0
2015-Jan-18 12:32S 29°43' E 031°08'0 0.0
2015-Jan-18 11:32S 29°43' E 031°08'0 0.0
2015-Jan-18 10:08S 29°43' E 031°08'0 0.0
2015-Jan-18 09:26S 29°43' E 031°08'0 0.0
2015-Jan-18 08:32S 29°43' E 031°08'0 0.0
2015-Jan-18 07:14S 29°43' E 031°08'0 0.0
2015-Jan-18 05:20S 29°43' E 031°08'0 0.0
2015-Jan-18 04:20S 29°43' E 031°08'0 0.0
2015-Jan-18 03:32S 29°43' E 031°08'0 0.0
2015-Jan-18 02:26S 29°43' E 031°08'0 0.0
2015-Jan-18 01:14S 29°43' E 031°08'0 0.0
2015-Jan-18 00:32S 29°43' E 031°08'0 0.0
2015-Jan-17 23:20S 29°43' E 031°08'0 0.1
2015-Jan-17 22:32S 29°43' E 031°08'0 0.0
2015-Jan-17 21:26S 29°43' E 031°08'0 0.0
2015-Jan-17 20:32S 29°43' E 031°08'0 0.0
2015-Jan-17 19:14S 29°43' E 031°08'0 0.0
2015-Jan-17 18:32S 29°43' E 031°08'0 0.0
2015-Jan-17 17:32S 29°43' E 031°08'0 0.0
2015-Jan-17 16:32S 29°43' E 031°08'0 0.0
2015-Jan-17 15:26S 29°43' E 031°08'0 0.0
2015-Jan-17 14:26S 29°43' E 031°08'0 0.0
2015-Jan-17 12:32S 29°43' E 031°08'0 0.0
2015-Jan-17 11:08S 29°43' E 031°08'0 0.0
2015-Jan-17 10:26S 29°43' E 031°08'0 0.0
2015-Jan-17 09:32S 29°43' E 031°08'0 0.0
2015-Jan-17 08:26S 29°43' E 031°08'0 0.0
2015-Jan-17 06:26S 29°43' E 031°08'0 0.0
2015-Jan-17 05:26S 29°43' E 031°08'  

Dump ship's entire track history